sensor_id;sensor_type;location;lat;lon;timestamp;pressure;altitude;pressure_sealevel;temperature;humidity
14966;BME280;7577;45.226;5.798;2023-07-31T00:00:13;99320.70;;;28.19;40.62
14966;BME280;7577;45.226;5.798;2023-07-31T00:05:21;99311.12;;;28.20;40.58
14966;BME280;7577;45.226;5.798;2023-07-31T00:07:51;99316.08;;;28.17;40.59
14966;BME280;7577;45.226;5.798;2023-07-31T00:10:22;99316.66;;;28.17;40.61
14966;BME280;7577;45.226;5.798;2023-07-31T00:12:53;99310.84;;;28.16;40.57
14966;BME280;7577;45.226;5.798;2023-07-31T00:15:23;99302.44;;;28.16;40.50
14966;BME280;7577;45.226;5.798;2023-07-31T00:20:31;99298.66;;;28.18;40.56
14966;BME280;7577;45.226;5.798;2023-07-31T00:23:01;99298.81;;;28.15;40.56
14966;BME280;7577;45.226;5.798;2023-07-31T00:25:31;99297.20;;;28.14;40.58
14966;BME280;7577;45.226;5.798;2023-07-31T00:28:00;99296.38;;;28.13;40.57
14966;BME280;7577;45.226;5.798;2023-07-31T00:30:31;99288.59;;;28.13;40.55
14966;BME280;7577;45.226;5.798;2023-07-31T00:33:01;99282.17;;;28.13;40.54
14966;BME280;7577;45.226;5.798;2023-07-31T00:35:31;99276.56;;;28.13;40.55
14966;BME280;7577;45.226;5.798;2023-07-31T00:38:01;99270.75;;;28.12;40.53
14966;BME280;7577;45.226;5.798;2023-07-31T00:40:35;99273.92;;;28.10;40.52
14966;BME280;7577;45.226;5.798;2023-07-31T00:43:05;99273.92;;;28.10;40.55
14966;BME280;7577;45.226;5.798;2023-07-31T00:45:35;99272.09;;;28.08;40.55
14966;BME280;7577;45.226;5.798;2023-07-31T00:48:06;99266.19;;;28.03;40.57
14966;BME280;7577;45.226;5.798;2023-07-31T00:50:36;99272.88;;;28.08;40.56
14966;BME280;7577;45.226;5.798;2023-07-31T00:53:07;99273.50;;;28.08;40.59
14966;BME280;7577;45.226;5.798;2023-07-31T00:55:37;99268.26;;;28.07;40.55
14966;BME280;7577;45.226;5.798;2023-07-31T00:58:08;99278.85;;;28.07;40.58
14966;BME280;7577;45.226;5.798;2023-07-31T01:00:38;99275.84;;;28.06;40.59
14966;BME280;7577;45.226;5.798;2023-07-31T01:03:09;99277.84;;;28.06;40.63
14966;BME280;7577;45.226;5.798;2023-07-31T01:05:46;99272.25;;;28.06;40.63
14966;BME280;7577;45.226;5.798;2023-07-31T01:08:22;99273.65;;;28.06;40.62
14966;BME280;7577;45.226;5.798;2023-07-31T01:10:54;99271.22;;;28.04;40.66
14966;BME280;7577;45.226;5.798;2023-07-31T01:13:24;99274.38;;;28.03;40.69
14966;BME280;7577;45.226;5.798;2023-07-31T01:15:54;99276.97;;;28.02;40.68
14966;BME280;7577;45.226;5.798;2023-07-31T01:18:25;99278.73;;;28.00;40.70
14966;BME280;7577;45.226;5.798;2023-07-31T01:20:58;99265.47;;;27.97;40.43
14966;BME280;7577;45.226;5.798;2023-07-31T01:23:58;99267.33;;;27.99;40.73
14966;BME280;7577;45.226;5.798;2023-07-31T01:26:32;99272.92;;;27.99;40.77
14966;BME280;7577;45.226;5.798;2023-07-31T01:29:05;99274.91;;;27.98;40.76
14966;BME280;7577;45.226;5.798;2023-07-31T01:31:36;99273.29;;;27.98;40.78
14966;BME280;7577;45.226;5.798;2023-07-31T01:34:07;99269.87;;;27.98;40.80
14966;BME280;7577;45.226;5.798;2023-07-31T01:36:39;99265.84;;;27.95;40.80
14966;BME280;7577;45.226;5.798;2023-07-31T01:39:10;99267.48;;;27.97;40.82
14966;BME280;7577;45.226;5.798;2023-07-31T01:41:40;99267.48;;;27.97;40.81
14966;BME280;7577;45.226;5.798;2023-07-31T01:44:10;99263.03;;;27.95;40.85
14966;BME280;7577;45.226;5.798;2023-07-31T01:46:40;99272.26;;;27.96;40.86
14966;BME280;7577;45.226;5.798;2023-07-31T01:49:11;99269.61;;;27.93;40.90
14966;BME280;7577;45.226;5.798;2023-07-31T01:51:41;99264.11;;;27.88;40.93
14966;BME280;7577;45.226;5.798;2023-07-31T01:54:11;99273.81;;;27.93;40.94
14966;BME280;7577;45.226;5.798;2023-07-31T01:56:41;99278.59;;;27.93;40.94
14966;BME280;7577;45.226;5.798;2023-07-31T01:59:11;99278.59;;;27.93;40.95
14966;BME280;7577;45.226;5.798;2023-07-31T02:01:42;99275.00;;;27.93;40.98
14966;BME280;7577;45.226;5.798;2023-07-31T02:04:12;99267.75;;;27.91;40.99
14966;BME280;7577;45.226;5.798;2023-07-31T02:06:43;99263.34;;;27.90;41.00
14966;BME280;7577;45.226;5.798;2023-07-31T02:09:14;99261.16;;;27.90;41.00
14966;BME280;7577;45.226;5.798;2023-07-31T02:11:43;99260.33;;;27.89;41.02
14966;BME280;7577;45.226;5.798;2023-07-31T02:14:14;99263.28;;;27.87;41.06
14966;BME280;7577;45.226;5.798;2023-07-31T02:16:44;99268.06;;;27.86;41.05
14966;BME280;7577;45.226;5.798;2023-07-31T02:21:52;99265.62;;;27.85;41.14
14966;BME280;7577;45.226;5.798;2023-07-31T02:24:22;99265.62;;;27.85;41.14
14966;BME280;7577;45.226;5.798;2023-07-31T02:26:53;99271.02;;;27.84;41.11
14966;BME280;7577;45.226;5.798;2023-07-31T02:29:23;99266.23;;;27.84;41.10
14966;BME280;7577;45.226;5.798;2023-07-31T02:31:53;99270.44;;;27.84;41.10
14966;BME280;7577;45.226;5.798;2023-07-31T02:34:23;99265.57;;;27.81;41.17
14966;BME280;7577;45.226;5.798;2023-07-31T02:36:53;99265.57;;;27.81;41.17
14966;BME280;7577;45.226;5.798;2023-07-31T02:39:23;99266.75;;;27.80;41.16
14966;BME280;7577;45.226;5.798;2023-07-31T02:41:53;99260.91;;;27.79;41.16
14966;BME280;7577;45.226;5.798;2023-07-31T02:44:23;99262.47;;;27.77;41.17
14966;BME280;7577;45.226;5.798;2023-07-31T02:46:53;99267.09;;;27.79;41.22
14966;BME280;7577;45.226;5.798;2023-07-31T02:49:23;99261.86;;;27.77;41.24
14966;BME280;7577;45.226;5.798;2023-07-31T02:51:53;99264.81;;;27.75;41.24
14966;BME280;7577;45.226;5.798;2023-07-31T02:54:23;99268.42;;;27.75;41.16
14966;BME280;7577;45.226;5.798;2023-07-31T02:56:53;99271.59;;;27.74;41.28
14966;BME280;7577;45.226;5.798;2023-07-31T02:59:23;99271.02;;;27.74;41.29
14966;BME280;7577;45.226;5.798;2023-07-31T03:01:54;99268.58;;;27.73;41.28
14966;BME280;7577;45.226;5.798;2023-07-31T03:04:24;99267.18;;;27.73;41.30
14966;BME280;7577;45.226;5.798;2023-07-31T03:06:53;99262.52;;;27.71;41.33
14966;BME280;7577;45.226;5.798;2023-07-31T03:09:23;99260.34;;;27.70;41.33
14966;BME280;7577;45.226;5.798;2023-07-31T03:11:53;99260.34;;;27.70;41.31
14966;BME280;7577;45.226;5.798;2023-07-31T03:14:23;99258.27;;;27.67;41.34
14966;BME280;7577;45.226;5.798;2023-07-31T03:16:55;99266.45;;;27.66;41.37
14966;BME280;7577;45.226;5.798;2023-07-31T03:19:25;99257.84;;;27.65;41.37
14966;BME280;7577;45.226;5.798;2023-07-31T03:21:55;99261.22;;;27.65;41.46
14966;BME280;7577;45.226;5.798;2023-07-31T03:24:25;99270.44;;;27.65;41.37
14966;BME280;7577;45.226;5.798;2023-07-31T03:26:56;99271.38;;;27.63;41.36
14966;BME280;7577;45.226;5.798;2023-07-31T03:29:26;99271.16;;;27.62;41.40
14966;BME280;7577;45.226;5.798;2023-07-31T03:31:56;99273.14;;;27.62;41.35
14966;BME280;7577;45.226;5.798;2023-07-31T03:34:28;99276.77;;;27.62;41.34
14966;BME280;7577;45.226;5.798;2023-07-31T03:36:57;99275.15;;;27.61;41.36
14966;BME280;7577;45.226;5.798;2023-07-31T03:39:27;99279.34;;;27.61;41.38
14966;BME280;7577;45.226;5.798;2023-07-31T03:44:35;99272.92;;;27.61;41.37
14966;BME280;7577;45.226;5.798;2023-07-31T03:49:44;99275.94;;;27.62;41.39
14966;BME280;7577;45.226;5.798;2023-07-31T03:52:14;99280.90;;;27.59;41.41
14966;BME280;7577;45.226;5.798;2023-07-31T03:54:44;99290.45;;;27.58;41.41
14966;BME280;7577;45.226;5.798;2023-07-31T03:57:14;99288.69;;;27.59;41.36
14966;BME280;7577;45.226;5.798;2023-07-31T03:59:45;99284.64;;;27.57;41.40
14966;BME280;7577;45.226;5.798;2023-07-31T04:02:15;99285.76;;;27.52;41.35
14966;BME280;7577;45.226;5.798;2023-07-31T04:04:46;99295.98;;;27.54;41.45
14966;BME280;7577;45.226;5.798;2023-07-31T04:07:17;99290.75;;;27.53;41.46
14966;BME280;7577;45.226;5.798;2023-07-31T04:09:48;99292.00;;;27.55;41.42
14966;BME280;7577;45.226;5.798;2023-07-31T04:12:18;99289.80;;;27.55;41.42
14966;BME280;7577;45.226;5.798;2023-07-31T04:14:48;99290.75;;;27.53;41.45
14966;BME280;7577;45.226;5.798;2023-07-31T04:19:57;99300.03;;;27.57;41.39
14966;BME280;7577;45.226;5.798;2023-07-31T04:22:27;99295.77;;;27.53;41.37
14966;BME280;7577;45.226;5.798;2023-07-31T04:24:57;99286.91;;;27.51;41.37
14966;BME280;7577;45.226;5.798;2023-07-31T04:27:27;99275.66;;;27.48;41.06
14966;BME280;7577;45.226;5.798;2023-07-31T04:29:57;99275.66;;;27.48;41.06
14966;BME280;7577;45.226;5.798;2023-07-31T04:32:28;99285.09;;;27.49;41.35
14966;BME280;7577;45.226;5.798;2023-07-31T04:34:58;99296.28;;;27.49;41.34
14966;BME280;7577;45.226;5.798;2023-07-31T04:37:28;99299.30;;;27.50;41.33
14966;BME280;7577;45.226;5.798;2023-07-31T04:39:59;99299.30;;;27.50;41.32
14966;BME280;7577;45.226;5.798;2023-07-31T04:42:30;99305.71;;;27.51;41.30
14966;BME280;7577;45.226;5.798;2023-07-31T04:47:37;99300.33;;;27.52;41.33
14966;BME280;7577;45.226;5.798;2023-07-31T04:50:09;99304.00;;;27.46;41.34
14966;BME280;7577;45.226;5.798;2023-07-31T04:52:39;99309.02;;;27.47;41.32
14966;BME280;7577;45.226;5.798;2023-07-31T04:55:09;99311.00;;;27.46;41.28
14966;BME280;7577;45.226;5.798;2023-07-31T04:57:39;99313.43;;;27.48;41.25
14966;BME280;7577;45.226;5.798;2023-07-31T05:00:11;99316.81;;;27.47;41.22
14966;BME280;7577;45.226;5.798;2023-07-31T05:02:41;99319.17;;;27.45;41.27
14966;BME280;7577;45.226;5.798;2023-07-31T05:05:11;99316.53;;;27.43;41.23
14966;BME280;7577;45.226;5.798;2023-07-31T05:07:41;99321.45;;;27.40;41.24
14966;BME280;7577;45.226;5.798;2023-07-31T05:10:11;99321.16;;;27.45;41.24
14966;BME280;7577;45.226;5.798;2023-07-31T05:12:41;99315.92;;;27.43;41.20
14966;BME280;7577;45.226;5.798;2023-07-31T05:15:11;99316.53;;;27.43;41.21
14966;BME280;7577;45.226;5.798;2023-07-31T05:17:41;99309.17;;;27.44;41.21
14966;BME280;7577;45.226;5.798;2023-07-31T05:22:51;99308.20;;;27.46;41.20
14966;BME280;7577;45.226;5.798;2023-07-31T05:25:22;99314.98;;;27.45;41.20
14966;BME280;7577;45.226;5.798;2023-07-31T05:27:51;99304.36;;;27.45;41.15
14966;BME280;7577;45.226;5.798;2023-07-31T05:30:22;99299.28;;;27.41;41.28
14966;BME280;7577;45.226;5.798;2023-07-31T05:32:53;99308.34;;;27.44;41.20
14966;BME280;7577;45.226;5.798;2023-07-31T05:35:23;99316.16;;;27.44;41.24
14966;BME280;7577;45.226;5.798;2023-07-31T05:37:52;99311.72;;;27.43;41.23
14966;BME280;7577;45.226;5.798;2023-07-31T05:40:22;99310.11;;;27.42;41.20
14966;BME280;7577;45.226;5.798;2023-07-31T05:42:53;99304.44;;;27.39;41.22
14966;BME280;7577;45.226;5.798;2023-07-31T05:48:01;99317.18;;;27.36;41.12
14966;BME280;7577;45.226;5.798;2023-07-31T05:50:31;99317.18;;;27.36;41.12
14966;BME280;7577;45.226;5.798;2023-07-31T05:53:01;99312.27;;;27.39;41.31
14966;BME280;7577;45.226;5.798;2023-07-31T05:55:31;99315.27;;;27.40;41.32
14966;BME280;7577;45.226;5.798;2023-07-31T05:58:01;99329.84;;;27.40;41.35
14966;BME280;7577;45.226;5.798;2023-07-31T06:00:31;99318.65;;;27.40;41.38
14966;BME280;7577;45.226;5.798;2023-07-31T06:03:02;99305.48;;;27.40;41.40
14966;BME280;7577;45.226;5.798;2023-07-31T06:05:31;99308.28;;;27.40;41.43
14966;BME280;7577;45.226;5.798;2023-07-31T06:08:02;99305.12;;;27.42;41.43
14966;BME280;7577;45.226;5.798;2023-07-31T06:10:32;99297.52;;;27.42;41.43
14966;BME280;7577;45.226;5.798;2023-07-31T06:13:03;99292.13;;;27.43;41.44
14966;BME280;7577;45.226;5.798;2023-07-31T06:18:11;99294.20;;;27.46;41.43
14966;BME280;7577;45.226;5.798;2023-07-31T06:20:41;99293.17;;;27.45;41.40
14966;BME280;7577;45.226;5.798;2023-07-31T06:23:11;99293.78;;;27.44;41.41
14966;BME280;7577;45.226;5.798;2023-07-31T06:25:41;99294.56;;;27.45;41.41
14966;BME280;7577;45.226;5.798;2023-07-31T06:28:11;99283.73;;;27.43;41.43
14966;BME280;7577;45.226;5.798;2023-07-31T06:30:41;99290.73;;;27.43;41.44
14966;BME280;7577;45.226;5.798;2023-07-31T06:33:11;99296.79;;;27.45;41.42
14966;BME280;7577;45.226;5.798;2023-07-31T06:35:41;99295.33;;;27.42;41.42
14966;BME280;7577;45.226;5.798;2023-07-31T06:38:11;99291.13;;;27.42;41.43
14966;BME280;7577;45.226;5.798;2023-07-31T06:40:41;99290.98;;;27.44;41.39
14966;BME280;7577;45.226;5.798;2023-07-31T06:43:11;99282.27;;;27.40;41.51
14966;BME280;7577;45.226;5.798;2023-07-31T06:45:41;99286.78;;;27.44;41.40
14966;BME280;7577;45.226;5.798;2023-07-31T06:48:11;99280.94;;;27.43;41.40
14966;BME280;7577;45.226;5.798;2023-07-31T06:50:41;99279.17;;;27.45;41.39
14966;BME280;7577;45.226;5.798;2023-07-31T06:53:12;99283.38;;;27.45;41.39
14966;BME280;7577;45.226;5.798;2023-07-31T06:55:42;99285.95;;;27.44;41.41
14966;BME280;7577;45.226;5.798;2023-07-31T06:58:12;99280.36;;;27.44;41.44
14966;BME280;7577;45.226;5.798;2023-07-31T07:00:42;99279.78;;;27.44;41.44
14966;BME280;7577;45.226;5.798;2023-07-31T07:03:12;99267.77;;;27.44;41.43
14966;BME280;7577;45.226;5.798;2023-07-31T07:05:43;99260.20;;;27.44;41.47
14966;BME280;7577;45.226;5.798;2023-07-31T07:10:51;99257.83;;;27.46;41.49
14966;BME280;7577;45.226;5.798;2023-07-31T07:13:23;99260.77;;;27.44;41.49
14966;BME280;7577;45.226;5.798;2023-07-31T07:15:53;99257.16;;;27.43;41.52
14966;BME280;7577;45.226;5.798;2023-07-31T07:18:23;99254.14;;;27.42;41.52
14966;BME280;7577;45.226;5.798;2023-07-31T07:20:54;99256.36;;;27.43;41.57
14966;BME280;7577;45.226;5.798;2023-07-31T07:23:26;99254.96;;;27.43;41.56
14966;BME280;7577;45.226;5.798;2023-07-31T07:25:56;99255.54;;;27.42;41.58
14966;BME280;7577;45.226;5.798;2023-07-31T07:31:04;99257.40;;;27.44;41.58
14966;BME280;7577;45.226;5.798;2023-07-31T07:33:33;99258.12;;;27.41;41.61
14966;BME280;7577;45.226;5.798;2023-07-31T07:36:04;99258.12;;;27.41;41.58
14966;BME280;7577;45.226;5.798;2023-07-31T07:38:36;99252.95;;;27.43;41.58
14966;BME280;7577;45.226;5.798;2023-07-31T07:41:07;99257.16;;;27.43;41.57
14966;BME280;7577;45.226;5.798;2023-07-31T07:43:39;99260.56;;;27.43;41.56
14966;BME280;7577;45.226;5.798;2023-07-31T07:46:09;99257.16;;;27.43;41.57
14966;BME280;7577;45.226;5.798;2023-07-31T07:48:39;99248.55;;;27.42;41.58
14966;BME280;7577;45.226;5.798;2023-07-31T07:51:09;99252.53;;;27.41;41.61
14966;BME280;7577;45.226;5.798;2023-07-31T07:53:39;99250.45;;;27.38;41.43
14966;BME280;7577;45.226;5.798;2023-07-31T07:56:09;99250.45;;;27.38;41.43
14966;BME280;7577;45.226;5.798;2023-07-31T07:58:39;99247.97;;;27.43;41.58
14966;BME280;7577;45.226;5.798;2023-07-31T08:01:10;99238.17;;;27.43;41.58
14966;BME280;7577;45.226;5.798;2023-07-31T08:06:17;99236.63;;;27.45;41.58
14966;BME280;7577;45.226;5.798;2023-07-31T08:08:48;99233.83;;;27.45;41.59
14966;BME280;7577;45.226;5.798;2023-07-31T08:11:18;99225.43;;;27.45;41.52
14966;BME280;7577;45.226;5.798;2023-07-31T08:13:49;99223.82;;;27.44;41.59
14966;BME280;7577;45.226;5.798;2023-07-31T08:16:19;99218.13;;;27.41;41.72
14966;BME280;7577;45.226;5.798;2023-07-31T08:18:48;99218.73;;;27.40;41.64
14966;BME280;7577;45.226;5.798;2023-07-31T08:21:18;99218.73;;;27.40;41.64
14966;BME280;7577;45.226;5.798;2023-07-31T08:26:27;99213.66;;;27.46;41.63
14966;BME280;7577;45.226;5.798;2023-07-31T08:28:57;99211.95;;;27.41;41.65
14966;BME280;7577;45.226;5.798;2023-07-31T08:31:27;99223.00;;;27.44;41.61
14966;BME280;7577;45.226;5.798;2023-07-31T08:33:58;99215.79;;;27.43;41.60
14966;BME280;7577;45.226;5.798;2023-07-31T08:36:28;99214.02;;;27.44;41.60
14966;BME280;7577;45.226;5.798;2023-07-31T08:38:58;99219.98;;;27.43;41.59
14966;BME280;7577;45.226;5.798;2023-07-31T08:41:28;99215.18;;;27.43;41.61
14966;BME280;7577;45.226;5.798;2023-07-31T08:44:00;99210.41;;;27.44;41.54
14966;BME280;7577;45.226;5.798;2023-07-31T08:46:31;99212.38;;;27.43;41.53
14966;BME280;7577;45.226;5.798;2023-07-31T08:51:43;99212.02;;;27.45;41.50
14966;BME280;7577;45.226;5.798;2023-07-31T08:54:13;99202.52;;;27.40;41.11
14966;BME280;7577;45.226;5.798;2023-07-31T08:56:43;99202.52;;;27.40;41.11
14966;BME280;7577;45.226;5.798;2023-07-31T08:59:15;99209.37;;;27.42;41.44
14966;BME280;7577;45.226;5.798;2023-07-31T09:04:27;99208.06;;;27.46;41.38
14966;BME280;7577;45.226;5.798;2023-07-31T09:06:59;99208.19;;;27.43;41.39
14966;BME280;7577;45.226;5.798;2023-07-31T09:09:32;99196.20;;;27.43;41.62
14966;BME280;7577;45.226;5.798;2023-07-31T09:12:03;99183.24;;;27.44;41.82
14966;BME280;7577;45.226;5.798;2023-07-31T09:14:35;99183.24;;;27.44;41.82
14966;BME280;7577;45.226;5.798;2023-07-31T09:19:44;99179.32;;;27.49;41.37
14966;BME280;7577;45.226;5.798;2023-07-31T09:22:14;99174.48;;;27.46;41.39
14966;BME280;7577;45.226;5.798;2023-07-31T09:24:44;99163.20;;;27.42;41.47
14966;BME280;7577;45.226;5.798;2023-07-31T09:27:14;99166.66;;;27.45;41.37
14966;BME280;7577;45.226;5.798;2023-07-31T09:29:44;99166.66;;;27.45;41.37
14966;BME280;7577;45.226;5.798;2023-07-31T09:32:17;99165.27;;;27.45;41.38
14966;BME280;7577;45.226;5.798;2023-07-31T09:34:47;99166.09;;;27.46;41.35
14966;BME280;7577;45.226;5.798;2023-07-31T09:37:17;99169.67;;;27.46;41.36
14966;BME280;7577;45.226;5.798;2023-07-31T09:39:48;99160.49;;;27.46;41.51
14966;BME280;7577;45.226;5.798;2023-07-31T09:42:26;99160.49;;;27.46;41.51
14966;BME280;7577;45.226;5.798;2023-07-31T09:45:07;99155.47;;;27.45;41.32
14966;BME280;7577;45.226;5.798;2023-07-31T09:47:37;99150.70;;;27.46;41.33
14966;BME280;7577;45.226;5.798;2023-07-31T09:52:47;99142.94;;;27.49;41.32
14966;BME280;7577;45.226;5.798;2023-07-31T09:55:18;99137.50;;;27.46;41.31
14966;BME280;7577;45.226;5.798;2023-07-31T09:57:49;99139.72;;;27.47;41.33
14966;BME280;7577;45.226;5.798;2023-07-31T10:00:20;99132.94;;;27.48;41.28
14966;BME280;7577;45.226;5.798;2023-07-31T10:02:52;99128.73;;;27.48;41.20
14966;BME280;7577;45.226;5.798;2023-07-31T10:05:22;99121.95;;;27.49;41.11
14966;BME280;7577;45.226;5.798;2023-07-31T10:07:54;99120.55;;;27.49;41.08
14966;BME280;7577;45.226;5.798;2023-07-31T10:10:26;99111.28;;;27.45;41.09
14966;BME280;7577;45.226;5.798;2023-07-31T10:12:58;99111.28;;;27.45;41.09
14966;BME280;7577;45.226;5.798;2023-07-31T10:18:12;99101.17;;;27.50;41.07
14966;BME280;7577;45.226;5.798;2023-07-31T10:20:43;99102.97;;;27.48;41.10
14966;BME280;7577;45.226;5.798;2023-07-31T10:23:13;99098.16;;;27.49;41.08
14966;BME280;7577;45.226;5.798;2023-07-31T10:25:44;99094.18;;;27.50;41.08
14966;BME280;7577;45.226;5.798;2023-07-31T10:28:16;99094.18;;;27.50;41.08
14966;BME280;7577;45.226;5.798;2023-07-31T10:30:46;99086.39;;;27.49;41.03
14966;BME280;7577;45.226;5.798;2023-07-31T10:33:18;99079.03;;;27.51;41.01
14966;BME280;7577;45.226;5.798;2023-07-31T10:35:49;99079.03;;;27.51;41.01
14966;BME280;7577;45.226;5.798;2023-07-31T10:38:20;99066.19;;;27.50;41.03
14966;BME280;7577;45.226;5.798;2023-07-31T10:40:51;99062.81;;;27.50;41.04
14966;BME280;7577;45.226;5.798;2023-07-31T10:43:25;99061.41;;;27.50;41.29
14966;BME280;7577;45.226;5.798;2023-07-31T10:45:55;99061.63;;;27.51;41.01
14966;BME280;7577;45.226;5.798;2023-07-31T10:48:25;99061.63;;;27.51;41.01
14966;BME280;7577;45.226;5.798;2023-07-31T10:50:57;99056.85;;;27.52;40.98
14966;BME280;7577;45.226;5.798;2023-07-31T10:56:08;99052.66;;;27.52;40.99
14966;BME280;7577;45.226;5.798;2023-07-31T10:58:41;99051.05;;;27.51;41.02
14966;BME280;7577;45.226;5.798;2023-07-31T11:01:12;99049.03;;;27.51;41.01
14966;BME280;7577;45.226;5.798;2023-07-31T11:03:43;99041.01;;;27.50;41.00
14966;BME280;7577;45.226;5.798;2023-07-31T11:06:14;99037.05;;;27.51;41.00
14966;BME280;7577;45.226;5.798;2023-07-31T11:08:46;99037.05;;;27.51;40.96
14966;BME280;7577;45.226;5.798;2023-07-31T11:11:18;99026.06;;;27.52;40.89
14966;BME280;7577;45.226;5.798;2023-07-31T11:13:50;99026.28;;;27.53;40.91
14966;BME280;7577;45.226;5.798;2023-07-31T11:16:22;99018.70;;;27.53;40.83
14966;BME280;7577;45.226;5.798;2023-07-31T11:18:53;99014.72;;;27.54;40.83
14966;BME280;7577;45.226;5.798;2023-07-31T11:21:25;99018.09;;;27.54;40.84
14966;BME280;7577;45.226;5.798;2023-07-31T11:26:34;99008.38;;;27.57;40.74
14966;BME280;7577;45.226;5.798;2023-07-31T11:29:11;99002.33;;;27.55;40.66
14966;BME280;7577;45.226;5.798;2023-07-31T11:31:44;98998.95;;;27.56;40.61
14966;BME280;7577;45.226;5.798;2023-07-31T11:34:14;98999.74;;;27.56;40.56
14966;BME280;7577;45.226;5.798;2023-07-31T11:36:54;98989.73;;;27.55;40.55
14966;BME280;7577;45.226;5.798;2023-07-31T11:39:25;98992.61;;;27.59;40.54
14966;BME280;7577;45.226;5.798;2023-07-31T11:42:00;98985.61;;;27.59;40.49
14966;BME280;7577;45.226;5.798;2023-07-31T11:44:39;98981.84;;;27.61;40.38
14966;BME280;7577;45.226;5.798;2023-07-31T11:47:11;98979.03;;;27.61;40.34
14966;BME280;7577;45.226;5.798;2023-07-31T11:49:41;98969.45;;;27.62;40.32
14966;BME280;7577;45.226;5.798;2023-07-31T11:52:12;98958.63;;;27.60;40.63
14966;BME280;7577;45.226;5.798;2023-07-31T11:54:43;98958.63;;;27.60;40.63
14966;BME280;7577;45.226;5.798;2023-07-31T11:57:13;98963.27;;;27.62;40.31
14966;BME280;7577;45.226;5.798;2023-07-31T11:59:44;98951.47;;;27.63;40.12
14966;BME280;7577;45.226;5.798;2023-07-31T12:02:14;98943.47;;;27.61;40.19
14966;BME280;7577;45.226;5.798;2023-07-31T12:04:46;98947.50;;;27.64;40.22
14966;BME280;7577;45.226;5.798;2023-07-31T12:09:55;98933.55;;;27.67;40.16
14966;BME280;7577;45.226;5.798;2023-07-31T12:12:26;98930.27;;;27.62;40.12
14966;BME280;7577;45.226;5.798;2023-07-31T12:14:56;98921.70;;;27.64;39.99
14966;BME280;7577;45.226;5.798;2023-07-31T12:17:27;98921.70;;;27.64;39.99
14966;BME280;7577;45.226;5.798;2023-07-31T12:22:35;98921.17;;;27.68;39.80
14966;BME280;7577;45.226;5.798;2023-07-31T12:25:07;98916.34;;;27.65;39.79
14966;BME280;7577;45.226;5.798;2023-07-31T12:27:37;98908.36;;;27.67;39.70
14966;BME280;7577;45.226;5.798;2023-07-31T12:30:26;98908.36;;;27.67;39.70
14966;BME280;7577;45.226;5.798;2023-07-31T12:32:57;98902.77;;;27.67;39.83
14966;BME280;7577;45.226;5.798;2023-07-31T12:35:30;98908.78;;;27.69;39.87
14966;BME280;7577;45.226;5.798;2023-07-31T12:38:02;98900.62;;;27.70;39.89
14966;BME280;7577;45.226;5.798;2023-07-31T12:40:32;98902.02;;;27.70;39.77
14966;BME280;7577;45.226;5.798;2023-07-31T12:43:03;98895.23;;;27.71;39.73
14966;BME280;7577;45.226;5.798;2023-07-31T12:45:33;98892.05;;;27.73;39.55
14966;BME280;7577;45.226;5.798;2023-07-31T12:48:03;98892.05;;;27.73;39.55
14966;BME280;7577;45.226;5.798;2023-07-31T12:50:34;98884.45;;;27.73;39.74
14966;BME280;7577;45.226;5.798;2023-07-31T12:53:06;98882.67;;;27.75;39.71
14966;BME280;7577;45.226;5.798;2023-07-31T12:55:36;98879.50;;;27.76;39.74
14966;BME280;7577;45.226;5.798;2023-07-31T12:58:06;98872.33;;;27.79;39.79
14966;BME280;7577;45.226;5.798;2023-07-31T13:00:36;98858.13;;;27.78;39.85
14966;BME280;7577;45.226;5.798;2023-07-31T13:03:06;98859.73;;;27.79;39.93
14966;BME280;7577;45.226;5.798;2023-07-31T13:05:36;98850.41;;;27.81;39.90
14966;BME280;7577;45.226;5.798;2023-07-31T13:08:06;98851.41;;;27.82;39.89
14966;BME280;7577;45.226;5.798;2023-07-31T13:10:36;98848.84;;;27.83;39.93
14966;BME280;7577;45.226;5.798;2023-07-31T13:13:06;98842.63;;;27.84;39.93
14966;BME280;7577;45.226;5.798;2023-07-31T13:15:36;98833.03;;;27.85;39.90
14966;BME280;7577;45.226;5.798;2023-07-31T13:18:06;98833.85;;;27.85;39.87
14966;BME280;7577;45.226;5.798;2023-07-31T13:20:36;98822.66;;;27.85;39.87
14966;BME280;7577;45.226;5.798;2023-07-31T13:25:44;98816.77;;;27.94;39.90
14966;BME280;7577;45.226;5.798;2023-07-31T13:28:14;98813.36;;;27.94;39.89
14966;BME280;7577;45.226;5.798;2023-07-31T13:30:44;98811.96;;;27.94;39.92
14966;BME280;7577;45.226;5.798;2023-07-31T13:33:14;98815.41;;;27.98;39.91
14966;BME280;7577;45.226;5.798;2023-07-31T13:35:44;98812.23;;;27.99;39.96
14966;BME280;7577;45.226;5.798;2023-07-31T13:38:14;98807.65;;;28.01;39.93
14966;BME280;7577;45.226;5.798;2023-07-31T13:40:44;98803.86;;;28.03;39.92
14966;BME280;7577;45.226;5.798;2023-07-31T13:43:14;98799.48;;;28.05;39.92
14966;BME280;7577;45.226;5.798;2023-07-31T13:45:44;98795.11;;;28.08;39.85
14966;BME280;7577;45.226;5.798;2023-07-31T13:48:14;98788.55;;;28.10;39.86
14966;BME280;7577;45.226;5.798;2023-07-31T13:50:44;98786.97;;;28.12;39.85
14966;BME280;7577;45.226;5.798;2023-07-31T13:53:14;98785.39;;;28.15;39.82
14966;BME280;7577;45.226;5.798;2023-07-31T13:55:44;98783.47;;;28.22;39.71
14966;BME280;7577;45.226;5.798;2023-07-31T13:58:14;98783.27;;;28.21;39.70
14966;BME280;7577;45.226;5.798;2023-07-31T14:00:44;98788.48;;;28.23;39.73
14966;BME280;7577;45.226;5.798;2023-07-31T14:03:14;98787.29;;;28.24;39.72
14966;BME280;7577;45.226;5.798;2023-07-31T14:05:44;98776.69;;;28.27;39.71
14966;BME280;7577;45.226;5.798;2023-07-31T14:08:14;98783.55;;;28.29;39.70
14966;BME280;7577;45.226;5.798;2023-07-31T14:10:44;98766.33;;;28.31;39.65
14966;BME280;7577;45.226;5.798;2023-07-31T14:13:14;98773.97;;;28.34;39.64
14966;BME280;7577;45.226;5.798;2023-07-31T14:15:44;98768.39;;;28.37;39.62
14966;BME280;7577;45.226;5.798;2023-07-31T14:20:57;98770.28;;;28.43;39.60
14966;BME280;7577;45.226;5.798;2023-07-31T14:23:29;98773.29;;;28.44;39.59
14966;BME280;7577;45.226;5.798;2023-07-31T14:25:59;98774.75;;;28.47;39.49
14966;BME280;7577;45.226;5.798;2023-07-31T14:28:30;98771.33;;;28.48;39.46
14966;BME280;7577;45.226;5.798;2023-07-31T14:31:00;98770.56;;;28.51;39.47
14966;BME280;7577;45.226;5.798;2023-07-31T14:33:30;98767.58;;;28.53;39.45